sensor_id;sensor_type;location;lat;lon;timestamp;temperature;humidity
22795;DHT22;11564;50.920;11.612;2023-04-03T00:01:12;2.20;99.90
22795;DHT22;11564;50.920;11.612;2023-04-03T00:03:38;2.20;99.90
22795;DHT22;11564;50.920;11.612;2023-04-03T00:06:04;2.20;99.90
22795;DHT22;11564;50.920;11.612;2023-04-03T00:08:32;2.10;99.90
22795;DHT22;11564;50.920;11.612;2023-04-03T00:10:58;2.00;99.90
22795;DHT22;11564;50.920;11.612;2023-04-03T00:13:24;1.90;99.90
22795;DHT22;11564;50.920;11.612;2023-04-03T00:15:50;1.90;99.90
22795;DHT22;11564;50.920;11.612;2023-04-03T00:18:16;1.80;99.90
22795;DHT22;11564;50.920;11.612;2023-04-03T00:20:42;1.80;99.90
22795;DHT22;11564;50.920;11.612;2023-04-03T00:23:08;1.90;99.90
22795;DHT22;11564;50.920;11.612;2023-04-03T00:25:35;1.90;99.90
22795;DHT22;11564;50.920;11.612;2023-04-03T00:28:01;1.80;99.90
22795;DHT22;11564;50.920;11.612;2023-04-03T00:30:27;1.70;99.90
22795;DHT22;11564;50.920;11.612;2023-04-03T00:32:52;1.60;99.90
22795;DHT22;11564;50.920;11.612;2023-04-03T00:35:19;1.40;99.90
22795;DHT22;11564;50.920;11.612;2023-04-03T00:37:45;1.50;99.90
22795;DHT22;11564;50.920;11.612;2023-04-03T00:40:13;1.50;99.90
22795;DHT22;11564;50.920;11.612;2023-04-03T00:42:41;1.50;99.90
22795;DHT22;11564;50.920;11.612;2023-04-03T00:47:36;1.50;99.90
22795;DHT22;11564;50.920;11.612;2023-04-03T00:50:03;1.50;99.90
22795;DHT22;11564;50.920;11.612;2023-04-03T00:52:30;1.50;99.90
22795;DHT22;11564;50.920;11.612;2023-04-03T00:55:00;1.50;99.90
22795;DHT22;11564;50.920;11.612;2023-04-03T00:57:27;1.50;99.90
22795;DHT22;11564;50.920;11.612;2023-04-03T01:00:01;1.40;99.90
22795;DHT22;11564;50.920;11.612;2023-04-03T01:02:27;1.50;99.90
22795;DHT22;11564;50.920;11.612;2023-04-03T01:04:53;1.40;99.90
22795;DHT22;11564;50.920;11.612;2023-04-03T01:07:26;1.30;99.90
22795;DHT22;11564;50.920;11.612;2023-04-03T01:09:56;1.20;99.90
22795;DHT22;11564;50.920;11.612;2023-04-03T01:14:59;1.20;99.90
22795;DHT22;11564;50.920;11.612;2023-04-03T01:17:36;1.20;99.90
22795;DHT22;11564;50.920;11.612;2023-04-03T01:25:19;1.50;99.90
22795;DHT22;11564;50.920;11.612;2023-04-03T01:27:44;1.50;99.90
22795;DHT22;11564;50.920;11.612;2023-04-03T01:30:11;1.50;99.90
22795;DHT22;11564;50.920;11.612;2023-04-03T01:32:38;1.50;99.90
22795;DHT22;11564;50.920;11.612;2023-04-03T01:35:04;1.60;99.90
22795;DHT22;11564;50.920;11.612;2023-04-03T01:37:29;1.60;99.90
22795;DHT22;11564;50.920;11.612;2023-04-03T01:39:55;1.50;99.90
22795;DHT22;11564;50.920;11.612;2023-04-03T01:42:21;1.50;99.90
22795;DHT22;11564;50.920;11.612;2023-04-03T01:44:46;1.50;99.90
22795;DHT22;11564;50.920;11.612;2023-04-03T01:47:12;1.50;99.90
22795;DHT22;11564;50.920;11.612;2023-04-03T01:49:38;1.50;99.90
22795;DHT22;11564;50.920;11.612;2023-04-03T01:52:03;1.50;99.90
22795;DHT22;11564;50.920;11.612;2023-04-03T01:54:29;1.50;99.90
22795;DHT22;11564;50.920;11.612;2023-04-03T01:56:55;1.50;99.90
22795;DHT22;11564;50.920;11.612;2023-04-03T01:59:20;1.50;99.90
22795;DHT22;11564;50.920;11.612;2023-04-03T02:01:46;1.50;99.90
22795;DHT22;11564;50.920;11.612;2023-04-03T02:04:12;1.40;99.90
22795;DHT22;11564;50.920;11.612;2023-04-03T02:06:38;1.40;99.90
22795;DHT22;11564;50.920;11.612;2023-04-03T02:09:04;1.40;99.90
22795;DHT22;11564;50.920;11.612;2023-04-03T02:11:30;1.40;99.90
22795;DHT22;11564;50.920;11.612;2023-04-03T02:13:56;1.40;99.90
22795;DHT22;11564;50.920;11.612;2023-04-03T02:16:22;1.40;99.90
22795;DHT22;11564;50.920;11.612;2023-04-03T02:18:47;1.40;99.90
22795;DHT22;11564;50.920;11.612;2023-04-03T02:21:13;1.30;99.90
22795;DHT22;11564;50.920;11.612;2023-04-03T02:23:38;1.40;99.90
22795;DHT22;11564;50.920;11.612;2023-04-03T02:26:10;1.40;99.90
22795;DHT22;11564;50.920;11.612;2023-04-03T02:28:36;1.40;99.90
22795;DHT22;11564;50.920;11.612;2023-04-03T02:31:03;1.30;99.90
22795;DHT22;11564;50.920;11.612;2023-04-03T02:33:30;1.30;99.90
22795;DHT22;11564;50.920;11.612;2023-04-03T02:35:56;1.20;99.90
22795;DHT22;11564;50.920;11.612;2023-04-03T02:38:23;1.20;99.90
22795;DHT22;11564;50.920;11.612;2023-04-03T02:40:48;1.20;99.90
22795;DHT22;11564;50.920;11.612;2023-04-03T02:43:14;1.10;99.90
22795;DHT22;11564;50.920;11.612;2023-04-03T02:45:40;1.10;99.90
22795;DHT22;11564;50.920;11.612;2023-04-03T02:48:06;1.00;99.90
22795;DHT22;11564;50.920;11.612;2023-04-03T02:50:31;1.00;99.90
22795;DHT22;11564;50.920;11.612;2023-04-03T02:52:57;0.90;99.90
22795;DHT22;11564;50.920;11.612;2023-04-03T02:55:23;0.90;99.90
22795;DHT22;11564;50.920;11.612;2023-04-03T02:57:48;0.80;99.90
22795;DHT22;11564;50.920;11.612;2023-04-03T03:00:14;0.80;99.90
22795;DHT22;11564;50.920;11.612;2023-04-03T03:02:40;0.70;99.90
22795;DHT22;11564;50.920;11.612;2023-04-03T03:05:06;0.60;99.90
22795;DHT22;11564;50.920;11.612;2023-04-03T03:07:32;0.50;99.90
22795;DHT22;11564;50.920;11.612;2023-04-03T03:09:58;0.60;99.90
22795;DHT22;11564;50.920;11.612;2023-04-03T03:12:24;0.50;99.90
22795;DHT22;11564;50.920;11.612;2023-04-03T03:14:50;0.50;99.90
22795;DHT22;11564;50.920;11.612;2023-04-03T03:17:16;0.40;99.90
22795;DHT22;11564;50.920;11.612;2023-04-03T03:19:42;0.40;99.90
22795;DHT22;11564;50.920;11.612;2023-04-03T03:22:07;0.40;99.90
22795;DHT22;11564;50.920;11.612;2023-04-03T03:24:33;0.30;99.90
22795;DHT22;11564;50.920;11.612;2023-04-03T03:26:58;0.30;99.90
22795;DHT22;11564;50.920;11.612;2023-04-03T03:29:24;0.30;99.90
22795;DHT22;11564;50.920;11.612;2023-04-03T03:31:50;0.20;99.90
22795;DHT22;11564;50.920;11.612;2023-04-03T03:34:16;0.20;99.90
22795;DHT22;11564;50.920;11.612;2023-04-03T03:36:41;0.20;99.90
22795;DHT22;11564;50.920;11.612;2023-04-03T03:39:07;0.20;99.90
22795;DHT22;11564;50.920;11.612;2023-04-03T03:41:33;0.10;99.90
22795;DHT22;11564;50.920;11.612;2023-04-03T03:43:58;0.10;99.90
22795;DHT22;11564;50.920;11.612;2023-04-03T03:46:24;0.10;99.90
22795;DHT22;11564;50.920;11.612;2023-04-03T03:48:49;0.10;99.90
22795;DHT22;11564;50.920;11.612;2023-04-03T03:51:15;0.10;99.90
22795;DHT22;11564;50.920;11.612;2023-04-03T03:53:41;0.10;99.90
22795;DHT22;11564;50.920;11.612;2023-04-03T03:56:07;0.10;99.90
22795;DHT22;11564;50.920;11.612;2023-04-03T03:58:33;0.10;99.90
22795;DHT22;11564;50.920;11.612;2023-04-03T04:01:06;0.10;99.90
22795;DHT22;11564;50.920;11.612;2023-04-03T04:03:31;0.00;99.90
22795;DHT22;11564;50.920;11.612;2023-04-03T04:05:57;0.00;99.90
22795;DHT22;11564;50.920;11.612;2023-04-03T04:08:23;0.00;99.90
22795;DHT22;11564;50.920;11.612;2023-04-03T04:10:49;0.00;99.90
22795;DHT22;11564;50.920;11.612;2023-04-03T04:13:14;-0.10;99.90
22795;DHT22;11564;50.920;11.612;2023-04-03T04:15:40;-0.20;99.90
22795;DHT22;11564;50.920;11.612;2023-04-03T04:18:06;-0.20;99.90
22795;DHT22;11564;50.920;11.612;2023-04-03T04:20:32;-0.30;99.90
22795;DHT22;11564;50.920;11.612;2023-04-03T04:22:57;-0.40;99.90
22795;DHT22;11564;50.920;11.612;2023-04-03T04:25:23;-0.50;99.90
22795;DHT22;11564;50.920;11.612;2023-04-03T04:27:48;-0.50;99.90
22795;DHT22;11564;50.920;11.612;2023-04-03T04:30:14;-0.50;99.90
22795;DHT22;11564;50.920;11.612;2023-04-03T04:32:40;-0.50;99.90
22795;DHT22;11564;50.920;11.612;2023-04-03T04:35:06;-0.50;99.90
22795;DHT22;11564;50.920;11.612;2023-04-03T04:37:32;-0.60;99.90
22795;DHT22;11564;50.920;11.612;2023-04-03T04:39:57;-0.60;99.90
22795;DHT22;11564;50.920;11.612;2023-04-03T04:42:23;-0.60;99.90
22795;DHT22;11564;50.920;11.612;2023-04-03T04:44:48;-0.60;99.90
22795;DHT22;11564;50.920;11.612;2023-04-03T04:47:14;-0.60;99.90
22795;DHT22;11564;50.920;11.612;2023-04-03T04:49:40;-0.60;99.90
22795;DHT22;11564;50.920;11.612;2023-04-03T04:52:05;-0.60;99.90
22795;DHT22;11564;50.920;11.612;2023-04-03T04:54:32;-0.50;99.90
22795;DHT22;11564;50.920;11.612;2023-04-03T04:56:57;-0.50;99.90
22795;DHT22;11564;50.920;11.612;2023-04-03T04:59:23;-0.50;99.90
22795;DHT22;11564;50.920;11.612;2023-04-03T05:01:49;-0.50;99.90
22795;DHT22;11564;50.920;11.612;2023-04-03T05:04:15;-0.40;99.90
22795;DHT22;11564;50.920;11.612;2023-04-03T05:06:40;-0.40;99.90
22795;DHT22;11564;50.920;11.612;2023-04-03T05:09:06;-0.30;99.90
22795;DHT22;11564;50.920;11.612;2023-04-03T05:11:32;-0.30;99.90
22795;DHT22;11564;50.920;11.612;2023-04-03T05:13:58;-0.20;99.90
22795;DHT22;11564;50.920;11.612;2023-04-03T05:16:23;-0.10;99.90
22795;DHT22;11564;50.920;11.612;2023-04-03T05:18:49;-0.10;99.90
22795;DHT22;11564;50.920;11.612;2023-04-03T05:21:15;-0.10;99.90
22795;DHT22;11564;50.920;11.612;2023-04-03T05:23:41;0.00;99.90
22795;DHT22;11564;50.920;11.612;2023-04-03T05:26:06;0.00;99.90
22795;DHT22;11564;50.920;11.612;2023-04-03T05:28:32;0.10;99.90
22795;DHT22;11564;50.920;11.612;2023-04-03T05:30:58;0.20;99.90
22795;DHT22;11564;50.920;11.612;2023-04-03T05:33:24;0.20;99.90
22795;DHT22;11564;50.920;11.612;2023-04-03T05:35:52;0.30;99.90
22795;DHT22;11564;50.920;11.612;2023-04-03T05:38:17;0.30;99.90
22795;DHT22;11564;50.920;11.612;2023-04-03T05:40:43;0.30;99.90
22795;DHT22;11564;50.920;11.612;2023-04-03T05:43:09;0.30;99.90
22795;DHT22;11564;50.920;11.612;2023-04-03T05:45:35;0.30;99.90
22795;DHT22;11564;50.920;11.612;2023-04-03T05:48:00;0.40;99.90
22795;DHT22;11564;50.920;11.612;2023-04-03T05:50:26;0.40;99.90
22795;DHT22;11564;50.920;11.612;2023-04-03T05:52:53;0.50;99.90
22795;DHT22;11564;50.920;11.612;2023-04-03T05:55:20;0.50;99.90
22795;DHT22;11564;50.920;11.612;2023-04-03T05:57:46;0.60;99.90
22795;DHT22;11564;50.920;11.612;2023-04-03T06:00:13;0.80;99.90
22795;DHT22;11564;50.920;11.612;2023-04-03T06:02:41;0.80;99.90
22795;DHT22;11564;50.920;11.612;2023-04-03T06:05:08;0.80;99.90
22795;DHT22;11564;50.920;11.612;2023-04-03T06:07:34;0.90;99.90
22795;DHT22;11564;50.920;11.612;2023-04-03T06:10:00;0.60;99.90
22795;DHT22;11564;50.920;11.612;2023-04-03T06:12:26;0.30;99.90
22795;DHT22;11564;50.920;11.612;2023-04-03T06:14:54;0.20;99.90
22795;DHT22;11564;50.920;11.612;2023-04-03T06:17:19;0.10;99.90
22795;DHT22;11564;50.920;11.612;2023-04-03T06:19:45;0.20;99.90
22795;DHT22;11564;50.920;11.612;2023-04-03T06:22:11;0.50;99.90
22795;DHT22;11564;50.920;11.612;2023-04-03T06:24:37;0.70;99.90
22795;DHT22;11564;50.920;11.612;2023-04-03T06:27:03;1.00;99.90
22795;DHT22;11564;50.920;11.612;2023-04-03T06:29:29;0.90;99.90
22795;DHT22;11564;50.920;11.612;2023-04-03T06:31:55;1.10;99.90
22795;DHT22;11564;50.920;11.612;2023-04-03T06:34:21;1.30;99.90
22795;DHT22;11564;50.920;11.612;2023-04-03T06:36:46;1.40;99.90
22795;DHT22;11564;50.920;11.612;2023-04-03T06:39:17;1.50;99.90
22795;DHT22;11564;50.920;11.612;2023-04-03T06:41:43;1.60;99.90
22795;DHT22;11564;50.920;11.612;2023-04-03T06:44:09;1.70;99.90
22795;DHT22;11564;50.920;11.612;2023-04-03T06:46:38;1.80;99.90
22795;DHT22;11564;50.920;11.612;2023-04-03T06:49:04;1.90;99.90
22795;DHT22;11564;50.920;11.612;2023-04-03T06:51:30;1.90;99.90
22795;DHT22;11564;50.920;11.612;2023-04-03T06:53:57;1.90;99.90
22795;DHT22;11564;50.920;11.612;2023-04-03T06:56:24;2.10;99.90
22795;DHT22;11564;50.920;11.612;2023-04-03T06:58:51;1.80;99.90
22795;DHT22;11564;50.920;11.612;2023-04-03T07:01:18;1.90;99.90
22795;DHT22;11564;50.920;11.612;2023-04-03T07:03:47;2.10;99.90
22795;DHT22;11564;50.920;11.612;2023-04-03T07:06:17;2.30;99.90
22795;DHT22;11564;50.920;11.612;2023-04-03T07:08:44;2.20;99.90
22795;DHT22;11564;50.920;11.612;2023-04-03T07:11:11;2.30;99.90
22795;DHT22;11564;50.920;11.612;2023-04-03T07:13:37;2.30;99.90
22795;DHT22;11564;50.920;11.612;2023-04-03T07:16:03;2.40;99.90
22795;DHT22;11564;50.920;11.612;2023-04-03T07:18:31;2.70;99.90
22795;DHT22;11564;50.920;11.612;2023-04-03T07:20:57;2.80;99.90
22795;DHT22;11564;50.920;11.612;2023-04-03T07:23:23;2.80;99.90
22795;DHT22;11564;50.920;11.612;2023-04-03T07:25:50;2.90;99.90
22795;DHT22;11564;50.920;11.612;2023-04-03T07:28:17;2.90;99.90
22795;DHT22;11564;50.920;11.612;2023-04-03T07:30:48;2.90;99.90
22795;DHT22;11564;50.920;11.612;2023-04-03T07:33:15;3.00;99.90
22795;DHT22;11564;50.920;11.612;2023-04-03T07:35:43;3.10;99.90
22795;DHT22;11564;50.920;11.612;2023-04-03T07:38:09;3.10;99.90
22795;DHT22;11564;50.920;11.612;2023-04-03T07:40:35;3.00;99.90
22795;DHT22;11564;50.920;11.612;2023-04-03T07:43:01;3.20;99.90
22795;DHT22;11564;50.920;11.612;2023-04-03T07:45:28;3.00;99.90
22795;DHT22;11564;50.920;11.612;2023-04-03T07:47:54;3.10;99.90
22795;DHT22;11564;50.920;11.612;2023-04-03T07:50:20;3.30;99.90
22795;DHT22;11564;50.920;11.612;2023-04-03T07:52:47;3.40;99.90
22795;DHT22;11564;50.920;11.612;2023-04-03T07:55:13;3.60;99.90
22795;DHT22;11564;50.920;11.612;2023-04-03T07:57:38;3.70;99.90
22795;DHT22;11564;50.920;11.612;2023-04-03T08:00:06;3.80;99.90
22795;DHT22;11564;50.920;11.612;2023-04-03T08:02:31;3.60;99.90
22795;DHT22;11564;50.920;11.612;2023-04-03T08:04:58;3.60;99.90
22795;DHT22;11564;50.920;11.612;2023-04-03T08:07:24;3.50;99.90
22795;DHT22;11564;50.920;11.612;2023-04-03T08:09:50;3.60;99.90
22795;DHT22;11564;50.920;11.612;2023-04-03T08:12:16;3.70;99.90
22795;DHT22;11564;50.920;11.612;2023-04-03T08:14:42;4.10;99.90
22795;DHT22;11564;50.920;11.612;2023-04-03T08:17:08;4.30;99.90
22795;DHT22;11564;50.920;11.612;2023-04-03T08:19:38;4.50;99.90
22795;DHT22;11564;50.920;11.612;2023-04-03T08:22:04;4.70;99.90
22795;DHT22;11564;50.920;11.612;2023-04-03T08:24:31;4.60;99.90
22795;DHT22;11564;50.920;11.612;2023-04-03T08:26:57;4.40;99.90
22795;DHT22;11564;50.920;11.612;2023-04-03T08:29:23;3.90;99.90
22795;DHT22;11564;50.920;11.612;2023-04-03T08:31:49;4.00;99.90
22795;DHT22;11564;50.920;11.612;2023-04-03T08:34:15;4.10;99.90
22795;DHT22;11564;50.920;11.612;2023-04-03T08:36:41;4.00;99.90
22795;DHT22;11564;50.920;11.612;2023-04-03T08:39:07;3.90;99.90
22795;DHT22;11564;50.920;11.612;2023-04-03T08:41:37;3.80;99.90
22795;DHT22;11564;50.920;11.612;2023-04-03T08:44:28;3.80;99.90
22795;DHT22;11564;50.920;11.612;2023-04-03T08:49:59;3.90;99.90
22795;DHT22;11564;50.920;11.612;2023-04-03T08:52:38;4.30;99.90
22795;DHT22;11564;50.920;11.612;2023-04-03T08:55:16;4.90;99.90
22795;DHT22;11564;50.920;11.612;2023-04-03T08:57:44;4.70;99.90
22795;DHT22;11564;50.920;11.612;2023-04-03T09:02:46;5.20;99.90
22795;DHT22;11564;50.920;11.612;2023-04-03T09:05:18;5.40;99.90
22795;DHT22;11564;50.920;11.612;2023-04-03T09:07:47;5.50;99.90
22795;DHT22;11564;50.920;11.612;2023-04-03T09:10:18;5.20;99.90
22795;DHT22;11564;50.920;11.612;2023-04-03T09:13:11;4.70;99.10
22795;DHT22;11564;50.920;11.612;2023-04-03T09:15:38;4.70;99.90
22795;DHT22;11564;50.920;11.612;2023-04-03T09:23:30;4.30;99.90
22795;DHT22;11564;50.920;11.612;2023-04-03T09:26:05;4.50;98.90
22795;DHT22;11564;50.920;11.612;2023-04-03T09:28:38;4.60;99.60
22795;DHT22;11564;50.920;11.612;2023-04-03T09:31:29;4.50;98.60
22795;DHT22;11564;50.920;11.612;2023-04-03T09:34:06;4.70;99.90
22795;DHT22;11564;50.920;11.612;2023-04-03T09:36:40;4.70;98.30
22795;DHT22;11564;50.920;11.612;2023-04-03T09:39:20;4.80;98.80
22795;DHT22;11564;50.920;11.612;2023-04-03T09:42:13;4.90;99.20
22795;DHT22;11564;50.920;11.612;2023-04-03T09:44:40;5.20;99.40
22795;DHT22;11564;50.920;11.612;2023-04-03T09:47:27;5.20;98.30
22795;DHT22;11564;50.920;11.612;2023-04-03T09:52:38;5.80;98.60
22795;DHT22;11564;50.920;11.612;2023-04-03T09:55:13;5.90;97.00
22795;DHT22;11564;50.920;11.612;2023-04-03T09:57:39;5.40;96.20
22795;DHT22;11564;50.920;11.612;2023-04-03T10:00:06;5.00;95.20
22795;DHT22;11564;50.920;11.612;2023-04-03T10:02:44;5.10;96.50
22795;DHT22;11564;50.920;11.612;2023-04-03T10:05:30;5.10;96.70
22795;DHT22;11564;50.920;11.612;2023-04-03T10:10:33;5.30;95.10
22795;DHT22;11564;50.920;11.612;2023-04-03T10:13:14;5.70;95.40
22795;DHT22;11564;50.920;11.612;2023-04-03T10:15:50;5.80;95.20
22795;DHT22;11564;50.920;11.612;2023-04-03T10:20:54;5.40;94.50
22795;DHT22;11564;50.920;11.612;2023-04-03T10:26:37;5.90;96.20
22795;DHT22;11564;50.920;11.612;2023-04-03T10:32:16;6.70;95.60
22795;DHT22;11564;50.920;11.612;2023-04-03T10:34:45;6.50;96.20
22795;DHT22;11564;50.920;11.612;2023-04-03T10:42:55;6.70;94.20
22795;DHT22;11564;50.920;11.612;2023-04-03T10:51:23;6.40;92.90
22795;DHT22;11564;50.920;11.612;2023-04-03T10:56:28;7.10;92.90
22795;DHT22;11564;50.920;11.612;2023-04-03T10:59:05;7.30;91.00
22795;DHT22;11564;50.920;11.612;2023-04-03T11:01:36;7.90;91.90
22795;DHT22;11564;50.920;11.612;2023-04-03T11:04:05;8.60;91.40
22795;DHT22;11564;50.920;11.612;2023-04-03T11:06:59;8.70;91.30
22795;DHT22;11564;50.920;11.612;2023-04-03T11:09:32;8.60;92.90
22795;DHT22;11564;50.920;11.612;2023-04-03T11:12:23;8.50;90.50
22795;DHT22;11564;50.920;11.612;2023-04-03T11:14:51;8.50;89.50
22795;DHT22;11564;50.920;11.612;2023-04-03T11:20:19;8.30;86.80
22795;DHT22;11564;50.920;11.612;2023-04-03T11:22:50;8.30;88.50
22795;DHT22;11564;50.920;11.612;2023-04-03T11:25:23;8.60;86.50
22795;DHT22;11564;50.920;11.612;2023-04-03T11:28:00;8.90;87.40
22795;DHT22;11564;50.920;11.612;2023-04-03T11:30:34;9.30;89.20
22795;DHT22;11564;50.920;11.612;2023-04-03T11:36:26;9.50;88.30
22795;DHT22;11564;50.920;11.612;2023-04-03T11:39:00;9.50;89.10
22795;DHT22;11564;50.920;11.612;2023-04-03T11:41:31;9.00;89.90
22795;DHT22;11564;50.920;11.612;2023-04-03T11:44:13;8.40;86.20
22795;DHT22;11564;50.920;11.612;2023-04-03T11:46:52;7.90;85.80
22795;DHT22;11564;50.920;11.612;2023-04-03T12:49:39;10.30;76.30
22795;DHT22;11564;50.920;11.612;2023-04-03T12:52:39;10.30;75.00
22795;DHT22;11564;50.920;11.612;2023-04-03T12:55:16;9.90;74.50
22795;DHT22;11564;50.920;11.612;2023-04-03T12:57:42;9.90;75.90
22795;DHT22;11564;50.920;11.612;2023-04-03T13:02:52;10.70;76.60
22795;DHT22;11564;50.920;11.612;2023-04-03T13:05:19;10.10;77.00
22795;DHT22;11564;50.920;11.612;2023-04-03T13:07:54;9.00;73.70
22795;DHT22;11564;50.920;11.612;2023-04-03T13:10:22;8.60;74.40
22795;DHT22;11564;50.920;11.612;2023-04-03T13:12:56;11.10;75.20
22795;DHT22;11564;50.920;11.612;2023-04-03T13:15:25;15.40;67.50
22795;DHT22;11564;50.920;11.612;2023-04-03T13:17:52;15.40;60.30
22795;DHT22;11564;50.920;11.612;2023-04-03T13:20:31;13.90;59.00
22795;DHT22;11564;50.920;11.612;2023-04-03T13:23:08;12.00;61.20
22795;DHT22;11564;50.920;11.612;2023-04-03T13:25:42;10.70;67.00
22795;DHT22;11564;50.920;11.612;2023-04-03T13:28:13;10.70;68.40
22795;DHT22;11564;50.920;11.612;2023-04-03T13:30:39;10.90;69.50
22795;DHT22;11564;50.920;11.612;2023-04-03T13:33:20;10.70;69.60
22795;DHT22;11564;50.920;11.612;2023-04-03T13:35:47;10.90;69.40
22795;DHT22;11564;50.920;11.612;2023-04-03T13:40:57;17.80;63.70
22795;DHT22;11564;50.920;11.612;2023-04-03T13:43:26;21.00;56.90
22795;DHT22;11564;50.920;11.612;2023-04-03T13:46:25;20.30;52.80
22795;DHT22;11564;50.920;11.612;2023-04-03T13:48:54;17.40;49.80
22795;DHT22;11564;50.920;11.612;2023-04-03T13:51:22;14.40;55.00
22795;DHT22;11564;50.920;11.612;2023-04-03T13:53:57;13.00;59.10
22795;DHT22;11564;50.920;11.612;2023-04-03T14:01:24;9.80;66.70
22795;DHT22;11564;50.920;11.612;2023-04-03T14:04:01;9.60;68.10
22795;DHT22;11564;50.920;11.612;2023-04-03T14:06:27;10.10;65.80
22795;DHT22;11564;50.920;11.612;2023-04-03T14:08:53;12.30;64.20
22795;DHT22;11564;50.920;11.612;2023-04-03T14:11:21;12.50;63.00
22795;DHT22;11564;50.920;11.612;2023-04-03T14:13:48;12.00;62.10
22795;DHT22;11564;50.920;11.612;2023-04-03T14:16:26;10.00;60.80
22795;DHT22;11564;50.920;11.612;2023-04-03T14:18:52;8.90;65.50
22795;DHT22;11564;50.920;11.612;2023-04-03T14:21:19;8.00;68.40
22795;DHT22;11564;50.920;11.612;2023-04-03T14:23:46;7.60;70.20
22795;DHT22;11564;50.920;11.612;2023-04-03T14:26:18;7.90;69.50
22795;DHT22;11564;50.920;11.612;2023-04-03T14:28:46;7.70;68.90
22795;DHT22;11564;50.920;11.612;2023-04-03T14:31:13;7.70;69.80
22795;DHT22;11564;50.920;11.612;2023-04-03T14:33:40;6.50;68.10
22795;DHT22;11564;50.920;11.612;2023-04-03T14:36:18;6.80;69.70
22795;DHT22;11564;50.920;11.612;2023-04-03T14:38:45;8.20;70.60
22795;DHT22;11564;50.920;11.612;2023-04-03T14:41:17;10.40;66.30
22795;DHT22;11564;50.920;11.612;2023-04-03T14:43:45;12.40;62.40
22795;DHT22;11564;50.920;11.612;2023-04-03T14:46:29;12.00;61.70
22795;DHT22;11564;50.920;11.612;2023-04-03T14:48:55;10.70;63.70
22795;DHT22;11564;50.920;11.612;2023-04-03T14:51:21;9.60;67.10
22795;DHT22;11564;50.920;11.612;2023-04-03T14:53:47;9.30;67.80
22795;DHT22;11564;50.920;11.612;2023-04-03T14:56:18;8.40;69.30
22795;DHT22;11564;50.920;11.612;2023-04-03T14:58:48;8.20;69.30
22795;DHT22;11564;50.920;11.612;2023-04-03T15:01:17;7.60;69.80
22795;DHT22;11564;50.920;11.612;2023-04-03T15:03:42;7.10;71.60
22795;DHT22;11564;50.920;11.612;2023-04-03T15:06:13;7.10;71.70
22795;DHT22;11564;50.920;11.612;2023-04-03T15:08:40;7.00;72.30
22795;DHT22;11564;50.920;11.612;2023-04-03T15:11:08;6.90;71.10
22795;DHT22;11564;50.920;11.612;2023-04-03T15:13:34;6.80;71.00
22795;DHT22;11564;50.920;11.612;2023-04-03T15:15:59;6.90;71.60
22795;DHT22;11564;50.920;11.612;2023-04-03T15:18:26;6.90;71.70
22795;DHT22;11564;50.920;11.612;2023-04-03T15:20:53;7.10;72.30
22795;DHT22;11564;50.920;11.612;2023-04-03T15:23:19;7.20;71.40
22795;DHT22;11564;50.920;11.612;2023-04-03T15:25:47;7.40;71.70
22795;DHT22;11564;50.920;11.612;2023-04-03T15:28:25;7.40;71.40
22795;DHT22;11564;50.920;11.612;2023-04-03T15:30:52;7.30;71.00
22795;DHT22;11564;50.920;11.612;2023-04-03T15:33:18;7.20;71.00
22795;DHT22;11564;50.920;11.612;2023-04-03T15:35:44;7.00;71.00
22795;DHT22;11564;50.920;11.612;2023-04-03T15:38:10;6.60;71.50
22795;DHT22;11564;50.920;11.612;2023-04-03T15:40:36;6.40;72.20
22795;DHT22;11564;50.920;11.612;2023-04-03T15:43:01;6.30;73.10
22795;DHT22;11564;50.920;11.612;2023-04-03T15:45:30;6.30;73.60
22795;DHT22;11564;50.920;11.612;2023-04-03T15:47:57;6.40;73.50
22795;DHT22;11564;50.920;11.612;2023-04-03T15:50:23;6.60;74.40
22795;DHT22;11564;50.920;11.612;2023-04-03T15:52:50;6.80;73.10
22795;DHT22;11564;50.920;11.612;2023-04-03T15:55:21;8.40;72.30
22795;DHT22;11564;50.920;11.612;2023-04-03T15:57:47;10.90;68.20
22795;DHT22;11564;50.920;11.612;2023-04-03T16:00:13;12.60;63.70
22795;DHT22;11564;50.920;11.612;2023-04-03T16:02:40;11.50;63.10
22795;DHT22;11564;50.920;11.612;2023-04-03T16:05:08;10.30;63.80
22795;DHT22;11564;50.920;11.612;2023-04-03T16:07:34;9.10;67.20
22795;DHT22;11564;50.920;11.612;2023-04-03T16:10:00;8.50;68.60
22795;DHT22;11564;50.920;11.612;2023-04-03T16:12:25;7.80;69.90
22795;DHT22;11564;50.920;11.612;2023-04-03T16:14:51;7.40;71.20
22795;DHT22;11564;50.920;11.612;2023-04-03T16:17:17;7.10;71.50
22795;DHT22;11564;50.920;11.612;2023-04-03T16:19:43;6.60;72.40
22795;DHT22;11564;50.920;11.612;2023-04-03T16:22:08;6.30;73.20
22795;DHT22;11564;50.920;11.612;2023-04-03T16:24:34;6.00;72.60
22795;DHT22;11564;50.920;11.612;2023-04-03T16:27:01;5.80;72.60
22795;DHT22;11564;50.920;11.612;2023-04-03T16:29:26;5.70;71.60
22795;DHT22;11564;50.920;11.612;2023-04-03T16:31:52;5.60;72.90
22795;DHT22;11564;50.920;11.612;2023-04-03T16:34:18;5.60;74.60
22795;DHT22;11564;50.920;11.612;2023-04-03T16:36:43;5.20;74.00
22795;DHT22;11564;50.920;11.612;2023-04-03T16:39:09;5.20;75.60
22795;DHT22;11564;50.920;11.612;2023-04-03T16:41:35;5.00;77.60
22795;DHT22;11564;50.920;11.612;2023-04-03T16:44:01;4.90;77.10
22795;DHT22;11564;50.920;11.612;2023-04-03T16:46:26;4.90;78.00
22795;DHT22;11564;50.920;11.612;2023-04-03T16:48:52;4.70;77.70
22795;DHT22;11564;50.920;11.612;2023-04-03T16:51:18;4.70;78.30
22795;DHT22;11564;50.920;11.612;2023-04-03T16:53:43;4.60;77.50
22795;DHT22;11564;50.920;11.612;2023-04-03T16:56:09;4.60;78.20
22795;DHT22;11564;50.920;11.612;2023-04-03T16:58:35;4.50;78.20
22795;DHT22;11564;50.920;11.612;2023-04-03T17:01:11;4.60;78.10
22795;DHT22;11564;50.920;11.612;2023-04-03T17:03:37;4.50;78.00
22795;DHT22;11564;50.920;11.612;2023-04-03T17:06:03;4.40;77.30
22795;DHT22;11564;50.920;11.612;2023-04-03T17:08:29;4.30;75.90
22795;DHT22;11564;50.920;11.612;2023-04-03T17:10:54;4.20;77.00
22795;DHT22;11564;50.920;11.612;2023-04-03T17:13:20;4.20;76.60
22795;DHT22;11564;50.920;11.612;2023-04-03T17:15:46;4.10;76.80
22795;DHT22;11564;50.920;11.612;2023-04-03T17:18:11;4.10;77.80
22795;DHT22;11564;50.920;11.612;2023-04-03T17:20:37;4.10;78.30
22795;DHT22;11564;50.920;11.612;2023-04-03T17:23:04;4.10;77.30
22795;DHT22;11564;50.920;11.612;2023-04-03T17:25:30;4.00;78.00
22795;DHT22;11564;50.920;11.612;2023-04-03T17:27:55;4.00;78.80
22795;DHT22;11564;50.920;11.612;2023-04-03T17:30:21;4.00;79.00
22795;DHT22;11564;50.920;11.612;2023-04-03T17:32:47;3.90;80.40
22795;DHT22;11564;50.920;11.612;2023-04-03T17:35:13;3.90;81.80
22795;DHT22;11564;50.920;11.612;2023-04-03T17:37:39;3.80;81.20
22795;DHT22;11564;50.920;11.612;2023-04-03T17:40:08;3.80;81.00